createdAt,value
2022-08-14T00:02:31.315Z,20.70
2022-08-14T00:05:01.359Z,20.64
2022-08-14T00:07:31.145Z,20.64
2022-08-14T00:10:50.213Z,20.64
2022-08-14T00:12:56.729Z,20.56
2022-08-14T00:15:29.987Z,20.45
2022-08-14T00:18:08.790Z,20.41
2022-08-14T00:20:45.713Z,20.35
2022-08-14T00:23:17.997Z,20.23
2022-08-14T00:25:59.127Z,20.25
2022-08-14T00:28:36.995Z,20.23
2022-08-14T00:31:09.540Z,20.20
2022-08-14T00:33:52.186Z,20.17
2022-08-14T00:36:35.514Z,20.14
2022-08-14T00:39:18.327Z,20.08
2022-08-14T00:41:50.896Z,20.04
2022-08-14T00:44:32.740Z,19.98
2022-08-14T00:47:03.786Z,19.98
2022-08-14T00:49:38.223Z,19.93
2022-08-14T00:52:14.089Z,19.89
2022-08-14T00:54:52.907Z,19.87
2022-08-14T00:57:32.550Z,19.89
2022-08-14T01:00:02.605Z,19.86
2022-08-14T01:02:32.408Z,19.87
2022-08-14T01:05:07.775Z,19.86
2022-08-14T01:07:38.542Z,19.86
2022-08-14T01:10:17.874Z,19.85
2022-08-14T01:12:50.938Z,19.88
2022-08-14T01:15:21.507Z,19.88
2022-08-14T01:18:23.513Z,19.84
2022-08-14T01:21:08.219Z,19.86
2022-08-14T01:23:46.934Z,19.82
2022-08-14T01:26:23.517Z,19.86
2022-08-14T01:29:06.115Z,19.82
2022-08-14T01:31:38.382Z,19.81
2022-08-14T01:35:18.393Z,19.80
2022-08-14T01:36:58.615Z,19.80
2022-08-14T01:39:32.228Z,19.81
2022-08-14T01:42:02.702Z,19.80
2022-08-14T01:44:34.468Z,19.82
2022-08-14T01:47:21.067Z,19.79
2022-08-14T01:49:59.416Z,19.78
2022-08-14T01:52:58.993Z,19.79
2022-08-14T01:55:32.271Z,19.77
2022-08-14T01:58:19.456Z,19.75
2022-08-14T02:00:54.367Z,19.78
2022-08-14T02:03:29.667Z,19.75
2022-08-14T02:06:04.126Z,19.73
2022-08-14T02:08:53.439Z,19.73
2022-08-14T02:11:29.157Z,19.69
2022-08-14T02:14:07.329Z,19.71
2022-08-14T02:16:39.626Z,19.68
2022-08-14T02:19:13.657Z,19.66
2022-08-14T02:21:47.259Z,19.68
2022-08-14T02:24:38.806Z,19.65
2022-08-14T02:28:25.512Z,19.64
2022-08-14T02:30:03.349Z,19.64
2022-08-14T02:32:36.792Z,19.58
2022-08-14T02:35:18.693Z,19.59
2022-08-14T02:37:49.726Z,19.65
2022-08-14T02:40:20.035Z,19.66
2022-08-14T02:42:54.848Z,19.68
2022-08-14T02:45:38.736Z,19.67
2022-08-14T02:49:04.920Z,19.61
2022-08-14T02:51:09.317Z,19.63
2022-08-14T02:53:42.312Z,19.61
2022-08-14T02:56:30.939Z,19.58
2022-08-14T02:59:10.227Z,19.56
2022-08-14T03:01:50.533Z,19.54
2022-08-14T03:04:20.962Z,19.54
2022-08-14T03:06:57.877Z,19.54
2022-08-14T03:10:24.633Z,19.48
2022-08-14T03:12:36.259Z,19.47
2022-08-14T03:15:14.289Z,19.44
2022-08-14T03:17:57.008Z,19.45
2022-08-14T03:20:28.352Z,19.50
2022-08-14T03:23:00.215Z,19.47
2022-08-14T03:25:34.084Z,19.43
2022-08-14T03:28:08.338Z,19.37
2022-08-14T03:30:47.057Z,19.33
2022-08-14T03:33:16.809Z,19.33
2022-08-14T03:36:00.319Z,19.27
2022-08-14T03:39:12.572Z,19.19
2022-08-14T03:41:33.017Z,19.18
2022-08-14T03:45:27.958Z,19.15
2022-08-14T03:46:57.822Z,19.15
2022-08-14T03:49:28.634Z,19.15
2022-08-14T03:52:07.852Z,19.14
2022-08-14T03:54:54.966Z,19.12
2022-08-14T03:57:24.522Z,19.14
2022-08-14T03:59:54.218Z,19.11
2022-08-14T04:02:32.450Z,19.15
2022-08-14T04:05:11.837Z,19.04
2022-08-14T04:07:49.714Z,19.03
2022-08-14T04:10:32.386Z,19.08
2022-08-14T04:13:03.765Z,19.06
2022-08-14T04:15:55.983Z,19.01
2022-08-14T04:18:26.465Z,19.01
2022-08-14T04:20:58.608Z,19.03
2022-08-14T04:23:29.796Z,19.02
2022-08-14T04:26:03.171Z,19.06
2022-08-14T04:29:07.328Z,19.00
2022-08-14T04:31:24.914Z,19.05
2022-08-14T04:34:17.021Z,19.09
2022-08-14T04:37:03.325Z,19.07
2022-08-14T04:39:57.190Z,19.05
2022-08-14T04:42:51.382Z,19.08
2022-08-14T04:45:23.345Z,19.13
2022-08-14T04:48:06.201Z,19.11
2022-08-14T04:50:45.445Z,19.16
2022-08-14T04:53:35.510Z,19.21
2022-08-14T04:56:10.816Z,19.20
2022-08-14T04:59:03.694Z,19.22
2022-08-14T05:01:33.829Z,19.26
2022-08-14T05:04:16.418Z,19.29
2022-08-14T05:06:53.735Z,19.30
2022-08-14T05:09:24.321Z,19.37
2022-08-14T05:11:54.147Z,19.32
2022-08-14T05:14:43.244Z,19.36
2022-08-14T05:17:14.156Z,19.34
2022-08-14T05:21:54.260Z,19.40
2022-08-14T05:22:38.077Z,19.37
2022-08-14T05:25:08.832Z,19.43
2022-08-14T05:27:39.692Z,19.52
2022-08-14T05:30:11.026Z,19.59
2022-08-14T05:32:46.755Z,19.64
2022-08-14T05:35:16.369Z,19.68
2022-08-14T05:37:48.531Z,19.76
2022-08-14T05:40:19.019Z,19.88
2022-08-14T05:42:52.796Z,19.97
2022-08-14T05:45:22.604Z,19.93
2022-08-14T05:47:55.190Z,19.90
2022-08-14T05:50:24.675Z,20.07
2022-08-14T05:53:01.238Z,20.17
2022-08-14T05:55:30.766Z,20.19
2022-08-14T05:58:03.509Z,20.21
2022-08-14T06:00:38.777Z,20.30
2022-08-14T06:03:10.662Z,20.40
2022-08-14T06:05:40.674Z,20.44
2022-08-14T06:08:31.130Z,20.47
2022-08-14T06:11:07.964Z,20.44
2022-08-14T06:13:45.359Z,20.46
2022-08-14T06:16:17.652Z,20.54
2022-08-14T06:18:52.418Z,20.63
2022-08-14T06:21:23.215Z,20.67
2022-08-14T06:23:55.481Z,20.79
2022-08-14T06:26:29.946Z,20.81
2022-08-14T06:29:00.262Z,20.83
2022-08-14T06:31:29.783Z,20.89
2022-08-14T06:35:09.653Z,20.96
2022-08-14T06:36:50.263Z,21.05
2022-08-14T06:39:36.581Z,21.10
2022-08-14T06:42:07.721Z,21.15
2022-08-14T06:44:58.412Z,21.20
2022-08-14T06:47:28.092Z,21.26
2022-08-14T06:49:58.638Z,21.36
2022-08-14T06:52:28.202Z,21.44
2022-08-14T06:55:01.705Z,21.49
2022-08-14T06:57:38.949Z,21.52
2022-08-14T07:00:22.204Z,21.58
2022-08-14T07:03:08.855Z,21.73
2022-08-14T07:05:58.129Z,21.80
2022-08-14T07:08:31.099Z,21.90
2022-08-14T07:11:04.608Z,21.91
2022-08-14T07:13:35.090Z,21.96
2022-08-14T07:16:05.935Z,22.05
2022-08-14T07:18:40.678Z,22.12
2022-08-14T07:21:11.304Z,22.17
2022-08-14T07:23:44.087Z,22.27
2022-08-14T07:26:16.998Z,22.35
2022-08-14T07:28:46.881Z,22.46
2022-08-14T07:31:17.597Z,22.49
2022-08-14T07:33:50.631Z,22.52
2022-08-14T07:36:27.664Z,22.58
2022-08-14T07:39:00.928Z,22.70
2022-08-14T07:41:35.935Z,22.73
2022-08-14T07:44:29.230Z,22.71
2022-08-14T07:46:55.857Z,22.71
2022-08-14T07:49:25.449Z,22.79
2022-08-14T07:51:55.246Z,22.85
2022-08-14T07:54:30.286Z,22.92
2022-08-14T07:57:11.882Z,23.02
2022-08-14T07:59:44.514Z,23.09
2022-08-14T08:02:19.335Z,23.16
2022-08-14T08:04:54.191Z,23.26
2022-08-14T08:07:30.192Z,23.40
2022-08-14T08:10:02.349Z,23.45
2022-08-14T08:12:34.977Z,23.55
2022-08-14T08:15:07.410Z,23.66
2022-08-14T08:17:53.517Z,23.84
2022-08-14T08:20:29.840Z,24.03
2022-08-14T08:23:06.105Z,24.21
2022-08-14T08:25:40.006Z,24.40
2022-08-14T08:28:22.001Z,24.60
2022-08-14T08:30:56.840Z,24.78
2022-08-14T08:33:31.784Z,24.88
2022-08-14T08:36:03.770Z,25.03
2022-08-14T08:39:16.918Z,25.19
2022-08-14T08:41:22.831Z,25.22
2022-08-14T08:43:55.014Z,25.37
2022-08-14T08:46:25.658Z,25.44
2022-08-14T08:51:30.834Z,25.74
2022-08-14T08:54:04.523Z,25.78
2022-08-14T08:56:39.963Z,25.79
2022-08-14T08:59:31.604Z,25.94
2022-08-14T09:02:06.544Z,26.13
2022-08-14T09:04:45.221Z,26.10
2022-08-14T09:07:28.699Z,25.95
2022-08-14T09:10:00.574Z,26.06
2022-08-14T09:12:32.222Z,26.09
2022-08-14T09:15:11.631Z,25.96
2022-08-14T09:17:42.958Z,26.21
2022-08-14T09:20:14.178Z,26.52
2022-08-14T09:22:57.090Z,26.54
2022-08-14T09:26:00.464Z,26.64
2022-08-14T09:28:16.814Z,26.78
2022-08-14T09:30:54.087Z,26.77
2022-08-14T09:33:33.270Z,26.71
2022-08-14T09:36:34.428Z,26.73
2022-08-14T09:39:21.083Z,26.67
2022-08-14T09:42:21.404Z,26.67
2022-08-14T09:45:09.024Z,26.64
2022-08-14T09:47:52.658Z,26.58
2022-08-14T09:50:26.393Z,26.53
2022-08-14T09:52:59.587Z,26.59
2022-08-14T09:55:41.644Z,26.74
2022-08-14T09:58:20.109Z,26.85
2022-08-14T10:00:54.465Z,26.93
2022-08-14T10:03:37.395Z,26.98
2022-08-14T10:06:10.058Z,26.99
2022-08-14T10:08:50.835Z,27.00
2022-08-14T10:11:24.085Z,26.98
2022-08-14T10:13:56.862Z,26.89
2022-08-14T10:16:33.708Z,26.91
2022-08-14T10:19:09.718Z,27.04
2022-08-14T10:21:58.622Z,27.05
2022-08-14T10:24:36.815Z,26.95
2022-08-14T10:27:07.957Z,26.99
2022-08-14T10:29:41.017Z,27.18
2022-08-14T10:32:17.807Z,27.69
2022-08-14T10:35:14.474Z,28.10
2022-08-14T10:37:46.577Z,28.23
2022-08-14T10:40:38.629Z,28.30
2022-08-14T10:43:22.631Z,28.12
2022-08-14T10:45:59.623Z,27.97
2022-08-14T10:48:37.153Z,27.86
2022-08-14T10:51:16.781Z,27.81
2022-08-14T10:53:57.307Z,27.71
2022-08-14T10:56:34.969Z,27.57
2022-08-14T10:59:05.674Z,27.52
2022-08-14T11:01:38.532Z,27.44
2022-08-14T11:04:30.240Z,27.44
2022-08-14T11:07:05.847Z,27.26
2022-08-14T11:09:35.873Z,27.20
2022-08-14T11:12:34.094Z,27.25
2022-08-14T11:15:03.054Z,27.15
2022-08-14T11:17:34.067Z,27.15
2022-08-14T11:20:06.926Z,27.12
2022-08-14T11:23:02.937Z,26.98
2022-08-14T11:25:43.734Z,26.87
2022-08-14T11:28:19.059Z,26.92
2022-08-14T11:30:54.374Z,27.03
2022-08-14T11:33:29.191Z,27.02
2022-08-14T11:36:00.440Z,26.98
2022-08-14T11:38:38.796Z,26.97
2022-08-14T11:41:08.862Z,26.99
2022-08-14T11:43:46.902Z,26.91
2022-08-14T11:46:30.894Z,27.00
2022-08-14T11:49:09.389Z,26.98
2022-08-14T11:51:52.951Z,27.08
2022-08-14T11:54:34.262Z,26.95
2022-08-14T11:57:05.656Z,27.06
2022-08-14T11:59:35.330Z,27.11
2022-08-14T12:02:35.969Z,27.14
2022-08-14T12:05:09.597Z,27.08
2022-08-14T12:07:43.031Z,27.08
2022-08-14T12:10:27.331Z,27.01
2022-08-14T12:13:19.030Z,27.02
2022-08-14T12:16:03.027Z,27.02
2022-08-14T12:18:37.437Z,26.99
2022-08-14T12:21:19.241Z,27.04
2022-08-14T12:23:51.105Z,27.10
2022-08-14T12:26:39.545Z,27.06
2022-08-14T12:29:12.926Z,27.17
2022-08-14T12:31:46.823Z,27.21
2022-08-14T12:34:20.458Z,27.23
2022-08-14T12:36:52.467Z,27.21
2022-08-14T12:39:23.898Z,27.35
2022-08-14T12:42:06.520Z,27.44
2022-08-14T12:44:38.122Z,27.50
2022-08-14T12:47:13.191Z,27.52
2022-08-14T12:49:54.289Z,27.70
2022-08-14T12:52:43.123Z,27.83
2022-08-14T12:55:22.421Z,27.90
2022-08-14T12:58:05.980Z,28.22
2022-08-14T13:01:16.261Z,28.56
2022-08-14T13:03:45.395Z,29.00
2022-08-14T13:06:15.435Z,29.48
2022-08-14T13:08:52.808Z,29.95
2022-08-14T13:11:23.906Z,30.46
2022-08-14T13:14:01.363Z,30.71
2022-08-14T13:16:38.252Z,31.10
2022-08-14T13:19:11.131Z,31.39
2022-08-14T13:22:05.105Z,31.30
2022-08-14T13:24:33.616Z,30.91
2022-08-14T13:27:05.009Z,30.67
2022-08-14T13:29:46.725Z,30.33
2022-08-14T13:32:17.847Z,30.31
2022-08-14T13:34:48.043Z,30.43
2022-08-14T13:37:17.796Z,30.63
2022-08-14T13:39:56.288Z,31.05
2022-08-14T13:42:30.449Z,31.06
2022-08-14T13:45:06.504Z,31.10
2022-08-14T13:47:36.051Z,30.84
2022-08-14T13:50:09.023Z,30.43
2022-08-14T13:52:59.082Z,30.89
2022-08-14T13:55:31.413Z,30.97
2022-08-14T13:58:05.330Z,31.43
2022-08-14T14:00:53.639Z,31.93
2022-08-14T14:03:30.387Z,31.70
2022-08-14T14:06:01.944Z,31.79
2022-08-14T14:08:46.723Z,31.56
2022-08-14T14:11:19.529Z,31.42
2022-08-14T14:13:49.485Z,31.50
2022-08-14T14:16:30.071Z,31.57
2022-08-14T14:19:09.887Z,31.49
2022-08-14T14:21:41.317Z,31.02
2022-08-14T14:24:15.340Z,30.96
2022-08-14T14:26:50.232Z,30.83
2022-08-14T14:29:24.150Z,30.74
2022-08-14T14:32:00.785Z,30.79
2022-08-14T14:34:33.334Z,30.80
2022-08-14T14:37:06.179Z,30.67
2022-08-14T14:39:37.947Z,30.49
2022-08-14T14:42:31.893Z,30.20
2022-08-14T14:45:07.682Z,29.86
2022-08-14T14:47:42.582Z,29.69
2022-08-14T14:50:13.815Z,29.54
2022-08-14T14:52:47.242Z,29.48
2022-08-14T14:55:17.302Z,29.47
2022-08-14T14:57:52.142Z,29.17
2022-08-14T15:00:24.791Z,29.24
2022-08-14T15:03:03.222Z,29.11
2022-08-14T15:05:33.527Z,29.02
2022-08-14T15:08:03.042Z,29.05
2022-08-14T15:10:39.799Z,29.08
2022-08-14T15:13:09.850Z,29.05
2022-08-14T15:15:39.969Z,28.90
2022-08-14T15:18:35.856Z,28.65
2022-08-14T15:21:03.059Z,28.49
2022-08-14T15:23:44.837Z,28.65
2022-08-14T15:26:24.245Z,28.64
2022-08-14T15:29:04.898Z,28.66
2022-08-14T15:31:36.657Z,28.72
2022-08-14T15:34:43.367Z,28.76
2022-08-14T15:37:11.151Z,28.74
2022-08-14T15:39:43.181Z,28.62
2022-08-14T15:42:16.394Z,28.59
2022-08-14T15:44:58.156Z,28.53
2022-08-14T15:47:32.385Z,28.48
2022-08-14T15:50:08.785Z,28.41
2022-08-14T15:52:39.230Z,28.37
2022-08-14T15:55:12.825Z,28.33
2022-08-14T15:58:01.463Z,28.25
2022-08-14T16:00:50.216Z,28.24
2022-08-14T16:03:27.760Z,28.22
2022-08-14T16:06:10.814Z,28.18
2022-08-14T16:08:45.619Z,28.32
2022-08-14T16:11:17.010Z,28.57
2022-08-14T16:13:47.749Z,28.79
2022-08-14T16:16:47.138Z,28.82
2022-08-14T16:19:12.077Z,28.73
2022-08-14T16:22:02.584Z,28.59
2022-08-14T16:24:59.805Z,28.64
2022-08-14T16:27:37.196Z,28.52
2022-08-14T16:30:20.873Z,28.41
2022-08-14T16:32:56.431Z,28.31
2022-08-14T16:35:42.637Z,28.32
2022-08-14T16:38:45.737Z,28.32
2022-08-14T16:41:29.449Z,28.27
2022-08-14T16:44:01.692Z,28.19
2022-08-14T16:46:34.833Z,28.11
2022-08-14T16:49:07.136Z,28.12
2022-08-14T16:51:38.588Z,28.10
2022-08-14T16:54:21.073Z,28.05
2022-08-14T16:57:16.419Z,27.82
2022-08-14T16:59:51.936Z,27.74
2022-08-14T17:02:36.391Z,27.64
2022-08-14T17:05:20.827Z,27.50
2022-08-14T17:08:31.753Z,27.39
2022-08-14T17:11:12.502Z,27.29
2022-08-14T17:13:57.708Z,27.19
2022-08-14T17:16:31.058Z,27.05
2022-08-14T17:19:03.944Z,26.99
2022-08-14T17:21:40.946Z,26.88
2022-08-14T17:24:57.934Z,26.83
2022-08-14T17:27:05.380Z,26.69
2022-08-14T17:29:44.525Z,26.57
2022-08-14T17:32:44.062Z,26.47
2022-08-14T17:35:17.913Z,26.37
2022-08-14T17:37:55.477Z,26.34
2022-08-14T17:40:26.636Z,26.19
2022-08-14T17:43:02.828Z,26.09
2022-08-14T17:45:53.018Z,26.00
2022-08-14T17:49:10.679Z,25.88
2022-08-14T17:51:23.865Z,25.76
2022-08-14T17:54:02.412Z,25.66
2022-08-14T17:56:34.572Z,25.59
2022-08-14T17:59:12.510Z,25.53
2022-08-14T18:01:49.555Z,25.43
2022-08-14T18:04:28.126Z,25.41
2022-08-14T18:07:16.081Z,25.30
2022-08-14T18:09:56.899Z,25.13
2022-08-14T18:12:32.876Z,25.08
2022-08-14T18:15:16.138Z,25.00
2022-08-14T18:17:52.560Z,24.83
2022-08-14T18:21:41.044Z,24.76
2022-08-14T18:23:14.290Z,24.66
2022-08-14T18:25:50.393Z,24.54
2022-08-14T18:28:48.694Z,24.47
2022-08-14T18:31:42.238Z,24.35
2022-08-14T18:34:31.550Z,24.34
2022-08-14T18:37:17.293Z,24.30
2022-08-14T18:40:02.036Z,24.22
2022-08-14T18:42:44.576Z,24.16
2022-08-14T18:45:19.046Z,24.11
2022-08-14T18:48:50.169Z,24.03
2022-08-14T18:51:44.950Z,23.96
2022-08-14T18:54:33.179Z,23.91
2022-08-14T18:57:05.650Z,23.90
2022-08-14T18:59:43.948Z,23.83
2022-08-14T19:02:43.818Z,23.75
2022-08-14T19:05:16.390Z,23.67
2022-08-14T19:07:48.413Z,23.63
2022-08-14T19:10:37.634Z,23.58
2022-08-14T19:13:11.519Z,23.51
2022-08-14T19:15:43.428Z,23.48
2022-08-14T19:18:26.314Z,23.46
2022-08-14T19:21:01.758Z,23.40
2022-08-14T19:23:43.036Z,23.36
2022-08-14T19:26:35.796Z,23.30
2022-08-14T19:29:36.203Z,23.28
2022-08-14T19:32:39.440Z,23.20
2022-08-14T19:35:16.563Z,23.19
2022-08-14T19:37:54.081Z,23.17
2022-08-14T19:40:34.442Z,23.10
2022-08-14T19:43:06.898Z,23.07
2022-08-14T19:45:39.600Z,23.05
2022-08-14T19:48:15.741Z,23.03
2022-08-14T19:50:47.112Z,22.98
2022-08-14T19:53:19.811Z,22.93
2022-08-14T19:56:02.018Z,22.90
2022-08-14T19:58:54.588Z,22.85
2022-08-14T20:01:36.677Z,22.84
2022-08-14T20:04:45.193Z,22.82
2022-08-14T20:07:04.274Z,22.76
2022-08-14T20:11:06.627Z,22.76
2022-08-14T20:12:36.622Z,22.73
2022-08-14T20:15:47.489Z,22.70
2022-08-14T20:18:45.889Z,22.67
2022-08-14T20:21:07.489Z,22.63
2022-08-14T20:23:38.893Z,22.59
2022-08-14T20:26:31.246Z,22.59
2022-08-14T20:29:04.948Z,22.55
2022-08-14T20:31:38.317Z,22.51
2022-08-14T20:34:19.162Z,22.50
2022-08-14T20:37:04.191Z,22.43
2022-08-14T20:39:34.010Z,22.43
2022-08-14T20:42:24.786Z,22.37
2022-08-14T20:45:06.826Z,22.36
2022-08-14T20:47:50.570Z,22.30
2022-08-14T20:50:28.831Z,22.24
2022-08-14T20:53:00.207Z,22.19
2022-08-14T20:55:32.490Z,22.18
2022-08-14T20:58:10.072Z,22.12
2022-08-14T21:01:00.731Z,22.04
2022-08-14T21:03:57.326Z,22.01
2022-08-14T21:06:30.253Z,21.98
2022-08-14T21:09:19.794Z,21.94
2022-08-14T21:12:34.840Z,21.88
2022-08-14T21:14:59.403Z,21.85
2022-08-14T21:17:30.446Z,21.81
2022-08-14T21:20:25.546Z,21.83
2022-08-14T21:22:53.044Z,21.79
2022-08-14T21:25:26.037Z,21.71
2022-08-14T21:28:02.564Z,21.67
2022-08-14T21:30:51.317Z,21.64
2022-08-14T21:33:22.764Z,21.62
2022-08-14T21:35:56.682Z,21.58
2022-08-14T21:38:31.227Z,21.55
2022-08-14T21:41:42.371Z,21.52
2022-08-14T21:44:17.784Z,21.49
2022-08-14T21:46:53.442Z,21.45
2022-08-14T21:49:25.610Z,21.42
2022-08-14T21:52:51.247Z,21.38
2022-08-14T21:55:09.329Z,21.30
2022-08-14T21:57:57.019Z,21.30
2022-08-14T22:00:42.154Z,21.29
2022-08-14T22:03:14.284Z,21.22
2022-08-14T22:05:44.577Z,21.18
2022-08-14T22:08:16.654Z,21.15
2022-08-14T22:10:51.543Z,21.14
2022-08-14T22:13:26.536Z,21.14
2022-08-14T22:15:59.681Z,21.08
2022-08-14T22:18:30.316Z,21.02
2022-08-14T22:21:00.711Z,21.00
2022-08-14T22:23:38.178Z,20.94
2022-08-14T22:26:09.137Z,20.91
2022-08-14T22:28:39.070Z,20.87
2022-08-14T22:31:23.178Z,20.82
2022-08-14T22:33:57.783Z,20.81
2022-08-14T22:36:42.032Z,20.78
2022-08-14T22:39:14.793Z,20.74
2022-08-14T22:41:56.095Z,20.70
2022-08-14T22:44:28.428Z,20.68
2022-08-14T22:46:58.918Z,20.63
2022-08-14T22:50:31.702Z,20.61
2022-08-14T22:52:31.729Z,20.55
2022-08-14T22:55:06.039Z,20.56
2022-08-14T22:57:37.363Z,20.62
2022-08-14T23:00:15.037Z,20.63
2022-08-14T23:02:47.048Z,20.59
2022-08-14T23:05:39.937Z,20.58
2022-08-14T23:08:59.843Z,20.55
2022-08-14T23:11:10.190Z,20.50
2022-08-14T23:13:40.597Z,20.48
2022-08-14T23:16:20.057Z,20.42
2022-08-14T23:18:54.001Z,20.38
2022-08-14T23:21:25.341Z,20.33
2022-08-14T23:23:59.734Z,20.32
2022-08-14T23:26:47.080Z,20.29
2022-08-14T23:29:20.342Z,20.17
2022-08-14T23:31:51.496Z,20.08
2022-08-14T23:34:23.970Z,20.09
2022-08-14T23:36:56.114Z,19.95
2022-08-14T23:39:29.976Z,19.89
2022-08-14T23:42:04.572Z,19.93
2022-08-14T23:44:36.978Z,19.82
2022-08-14T23:47:12.188Z,19.82
2022-08-14T23:50:00.906Z,19.77
2022-08-14T23:52:56.256Z,19.61
2022-08-14T23:55:29.416Z,19.53
2022-08-14T23:58:02.142Z,19.52
